Buoy 13526

sailwx.info

Track history (hours):
 
Tides and Currents Weather Stations Pressure Air Temp Water Temp Dewpoint Dewpoint Depression Visibility Wind Speed Wind Dir Waves Ship Positions

Drifting buoy 13526

Last reported at 2014-Oct-31 12:47 UTC. Time now 2014-Oct-31 14:23 UTC.
Position N 27°06' W 037°53'.

Water temperature 26.0 ° C

Date/timePositionNaut miles runAvg speedWind from/ knotsBaromVisibWave heightAir tempDewpointWater temp
2014-Oct-31 12:47N 27°06' W 037°53'0 0.0 26.0
2014-Oct-31 11:56N 27°06' W 037°53'119.2 26.0
2014-Oct-31 11:52N 27°07' W 037°52'0 0.0 26.0
2014-Oct-31 11:06N 27°07' W 037°52'0 0.0 26.0
2014-Oct-31 09:06N 27°07' W 037°52'1 8.8 26.0
2014-Oct-31 09:01N 27°07' W 037°51'1 0.4 26.0
2014-Oct-31 07:26N 27°07' W 037°51'1 0.3 26.0
2014-Oct-31 05:45N 27°07' W 037°51'0 0.0 26.0
2014-Oct-31 05:25N 27°07' W 037°51'110.4 26.0
2014-Oct-31 05:19N 27°08' W 037°52'0 0.0 26.0
2014-Oct-31 03:44N 27°08' W 037°52'224.8 26.0
2014-Oct-31 03:39N 27°09' W 037°50'0 0.0 26.0
2014-Oct-31 01:15N 27°09' W 037°50'217.2 26.0
2014-Oct-31 01:09N 27°08' W 037°51'0 0.7 26.0
2014-Oct-31 00:29N 27°07' W 037°51'0 0.0 26.0
2014-Oct-30 23:37N 27°07' W 037°51'1 0.8 26.0
2014-Oct-30 22:47N 27°08' W 037°51'1 1.4 26.1
2014-Oct-30 21:56N 27°08' W 037°50'1 9.7 26.1
2014-Oct-30 21:51N 27°07' W 037°50'2 1.5 26.1
2014-Oct-30 20:44N 27°08' W 037°48'0 0.0 26.1
2014-Oct-30 20:35N 27°08' W 037°48'2 6.5 26.1
2014-Oct-30 20:18N 27°07' W 037°50'212.4 26.1
2014-Oct-30 20:09N 27°08' W 037°48'0 0.0 26.1
2014-Oct-30 18:57N 27°08' W 037°48'0 1.8 26.1
2014-Oct-30 18:55N 27°08' W 037°48'1 0.7 26.1
2014-Oct-30 17:18N 27°07' W 037°49'0 0.0 26.2
2014-Oct-30 16:55N 27°07' W 037°49'0 0.2 26.2
2014-Oct-30 15:19N 27°07' W 037°49'1 0.9 26.2
2014-Oct-30 13:59N 27°07' W 037°48'0 0.0 26.2
2014-Oct-30 13:10N 27°07' W 037°48'1 0.7 26.1
2014-Oct-30 12:18N 27°08' W 037°47'0 3.2 26.1
2014-Oct-30 12:15N 27°08' W 037°47'0 0.0 26.1
2014-Oct-30 12:10N 27°08' W 037°47'0 0.1 26.1
2014-Oct-30 11:32N 27°08' W 037°47'112.4 26.1
2014-Oct-30 11:26N 27°09' W 037°46'0 0.1 26.1
2014-Oct-30 09:28N 27°08' W 037°46'0 8.7 26.1
2014-Oct-30 09:25N 27°09' W 037°47'0 0.0 26.1
2014-Oct-30 09:17N 27°09' W 037°47'1 8.4 26.1
2014-Oct-30 09:12N 27°09' W 037°46'0 0.0 26.1
2014-Oct-30 07:56N 27°09' W 037°46'1 6.5 26.1
2014-Oct-30 07:48N 27°09' W 037°47'1 4.7 26.1
2014-Oct-30 07:37N 27°09' W 037°46'1 0.4 26.1
2014-Oct-30 05:56N 27°10' W 037°46'0 1.0 26.1
2014-Oct-30 05:36N 27°10' W 037°45'110.0 26.1
2014-Oct-30 05:30N 27°11' W 037°46'1 0.5 26.1
2014-Oct-30 03:50N 27°11' W 037°45'1 0.3 26.1
2014-Oct-30 00:49N 27°11' W 037°46'0 0.0 26.2
2014-Oct-29 23:56N 27°11' W 037°46'0 0.0 26.2
2014-Oct-29 23:54N 27°11' W 037°46'0 0.0 26.2
2014-Oct-29 23:10N 27°11' W 037°46'0 3.3 26.2
2014-Oct-29 23:02N 27°11' W 037°46'0 0.0 26.2
2014-Oct-29 22:25N 27°11' W 037°46'0 0.4 26.3
2014-Oct-29 22:16N 27°11' W 037°46'0 0.0 26.3
2014-Oct-29 22:11N 27°11' W 037°46'1 0.5
2014-Oct-29 20:38N 27°12' W 037°46'0 0.0 26.4
2014-Oct-29 19:30N 27°12' W 037°46'0 0.0 26.6
2014-Oct-29 19:20N 27°12' W 037°46'0 1.3
2014-Oct-29 19:11N 27°12' W 037°46'0 0.0 26.7
2014-Oct-29 19:07N 27°12' W 037°46'0 0.2 26.7
2014-Oct-29 17:45N 27°12' W 037°46'0 0.0 26.7
2014-Oct-29 17:31N 27°12' W 037°46'0 0.0 26.7
2014-Oct-29 17:26N 27°12' W 037°46'0 1.7 26.8
2014-Oct-29 17:09N 27°12' W 037°46'0 0.3 26.8
2014-Oct-29 15:31N 27°12' W 037°46'1 0.1 27.1
2014-Oct-29 11:55N 27°12' W 037°46'0 0.0 26.2
2014-Oct-29 11:52N 27°12' W 037°46'0 2.1 26.2
2014-Oct-29 11:49N 27°12' W 037°46'0 3.9 26.2
2014-Oct-29 11:44N 27°12' W 037°46'0 0.0 26.2
2014-Oct-29 11:00N 27°12' W 037°46'0 0.0 26.2
2014-Oct-29 10:54N 27°12' W 037°46'0 0.4 26.2
2014-Oct-29 10:03N 27°12' W 037°45'0 0.0 26.1
2014-Oct-29 09:52N 27°12' W 037°45'111.3 26.1
2014-Oct-29 09:49N 27°13' W 037°45'0 0.0 26.1
2014-Oct-29 08:10N 27°13' W 037°45'0 0.9 26.1
2014-Oct-29 07:45N 27°13' W 037°45'0 7.5 26.1
2014-Oct-29 07:42N 27°13' W 037°45'0 0.0 26.1
2014-Oct-29 06:48N 27°13' W 037°45'0 0.6 26.1
2014-Oct-29 06:33N 27°13' W 037°45'0 1.0 26.1
2014-Oct-29 06:09N 27°14' W 037°45'1 5.1 26.1
2014-Oct-29 06:02N 27°14' W 037°44'0 0.0 26.1
2014-Oct-29 05:46N 27°14' W 037°44'1 0.4 26.2
2014-Oct-29 04:10N 27°14' W 037°44'0 0.0 26.2
2014-Oct-29 04:07N 27°14' W 037°44'1 0.2 26.2
2014-Oct-29 01:06N 27°15' W 037°44'0 0.2 26.2
2014-Oct-29 00:19N 27°15' W 037°44'1 0.8 26.2
2014-Oct-28 23:28N 27°15' W 037°45'0 2.4 26.2
2014-Oct-28 23:25N 27°15' W 037°45'110.7 26.2
2014-Oct-28 23:21N 27°15' W 037°46'0 0.0 26.2
2014-Oct-28 22:52N 27°15' W 037°46'0 0.0 26.2
2014-Oct-28 22:38N 27°15' W 037°46'113.7 26.2
2014-Oct-28 22:33N 27°15' W 037°44'0 0.3 26.2
2014-Oct-28 21:29N 27°15' W 037°44'0 0.0 26.2
2014-Oct-28 19:55N 27°15' W 037°44'1 8.8 26.3
2014-Oct-28 19:51N 27°15' W 037°45'0 0.6 26.3
2014-Oct-28 19:31N 27°15' W 037°45'0 0.0 26.3
2014-Oct-28 19:23N 27°15' W 037°45'0 0.0 26.3
2014-Oct-28 18:09N 27°15' W 037°45'029.0 26.4
2014-Oct-28 18:08N 27°15' W 037°45'1 1.2 26.4
2014-Oct-28 17:42N 27°16' W 037°45'1 1.7 26.4
2014-Oct-28 17:22N 27°15' W 037°45'0 0.2 26.4
2014-Oct-28 15:42N 27°16' W 037°45'1 0.6 26.4
2014-Oct-28 13:53N 27°16' W 037°44'0 0.0 26.3
2014-Oct-28 12:11N 27°16' W 037°44'0 0.0 26.2
2014-Oct-28 12:06N 27°16' W 037°44'0 0.0 26.2
2014-Oct-28 11:20N 27°16' W 037°44'0 3.9 26.2
2014-Oct-28 11:15N 27°16' W 037°44'0 0.0 26.2
2014-Oct-28 11:12N 27°16' W 037°44'0 0.0 26.2
2014-Oct-28 08:56N 27°16' W 037°44'0 1.1 26.1
2014-Oct-28 08:36N 27°16' W 037°44'0 0.2 26.2
2014-Oct-28 07:56N 27°16' W 037°44'0 0.5 26.1
2014-Oct-28 07:21N 27°16' W 037°44'0 0.8 26.2
2014-Oct-28 06:56N 27°17' W 037°43'0 0.3 26.2
2014-Oct-28 06:19N 27°17' W 037°43'0 3.2 26.2
2014-Oct-28 06:13N 27°17' W 037°43'0 0.0 26.2
2014-Oct-28 05:56N 27°17' W 037°43'113.6 26.1
2014-Oct-28 05:53N 27°17' W 037°43'0 0.0 26.1
2014-Oct-28 04:18N 27°17' W 037°43'1 5.1 26.2
2014-Oct-28 04:09N 27°18' W 037°42'0 0.1 26.2
2014-Oct-27 23:50N 27°18' W 037°43'0 0.0 26.2
2014-Oct-27 23:44N 27°18' W 037°43'0 0.0 26.2
2014-Oct-27 22:56N 27°18' W 037°43'110.3 26.2
2014-Oct-27 22:52N 27°19' W 037°42'0 0.0 26.2
2014-Oct-27 22:06N 27°19' W 037°42'0 0.0
2014-Oct-27 21:50N 27°19' W 037°42'0 0.1 26.2
2014-Oct-27 20:18N 27°19' W 037°42'0 0.4 26.3
2014-Oct-27 19:35N 27°19' W 037°42'1 0.9 26.3
2014-Oct-27 18:39N 27°19' W 037°43'0 0.0 26.3
2014-Oct-27 18:37N 27°19' W 037°43'0 0.6 26.3
2014-Oct-27 17:54N 27°19' W 037°43'0 0.6 26.4
2014-Oct-27 17:33N 27°19' W 037°43'0 0.0 26.4
2014-Oct-27 15:53N 27°19' W 037°43'0 0.0 26.4
2014-Oct-27 14:07N 27°19' W 037°43'0 0.0 26.3
2014-Oct-27 12:32N 27°19' W 037°43'0 0.0 26.2
2014-Oct-27 12:29N 27°19' W 037°43'0 0.0 26.2
2014-Oct-27 12:25N 27°19' W 037°43'0 0.1 26.2
2014-Oct-27 11:40N 27°19' W 037°43'119.9 26.2
2014-Oct-27 11:36N 27°19' W 037°45'1 1.7 26.2
2014-Oct-27 10:45N 27°19' W 037°43'1 0.4
2014-Oct-27 09:02N 27°19' W 037°42'0 0.3 26.1
2014-Oct-27 08:09N 27°19' W 037°42'0 0.0 26.1
2014-Oct-27 07:52N 27°19' W 037°42'0 0.5 26.1
2014-Oct-27 07:24N 27°20' W 037°42'0 0.3 26.1
2014-Oct-27 06:33N 27°20' W 037°42'0 1.2 26.1
2014-Oct-27 06:30N 27°20' W 037°42'0 2.7 26.1
2014-Oct-27 06:24N 27°20' W 037°41'0 0.2 26.1
2014-Oct-27 06:10N 27°20' W 037°41'0 4.4 26.1
2014-Oct-27 06:07N 27°20' W 037°41'1 0.4 26.1
2014-Oct-27 04:29N 27°20' W 037°41'2 0.5 26.1
2014-Oct-27 00:56N 27°22' W 037°40'1 0.7 26.2
2014-Oct-27 00:09N 27°22' W 037°41'0 0.0 26.2
2014-Oct-27 00:07N 27°22' W 037°41'0 0.0 26.2
2014-Oct-27 00:04N 27°22' W 037°41'0 0.0 26.2
2014-Oct-26 23:20N 27°22' W 037°41'0 3.2 26.2
2014-Oct-26 23:13N 27°22' W 037°41'0 0.0 26.2
2014-Oct-26 23:10N 27°22' W 037°41'1 0.9 26.2
2014-Oct-26 22:30N 27°23' W 037°41'1 3.6 26.2
2014-Oct-26 22:20N 27°22' W 037°41'1 0.4 26.2
2014-Oct-26 20:43N 27°23' W 037°41'0 1.0 26.2
2014-Oct-26 20:32N 27°23' W 037°41'0 0.0 26.2
2014-Oct-26 19:46N 27°23' W 037°41'110.7 26.3
2014-Oct-26 19:40N 27°23' W 037°42'0 0.0
2014-Oct-26 18:56N 27°23' W 037°42'0 0.0 26.3
2014-Oct-26 18:05N 27°23' W 037°42'0 0.6 26.4
2014-Oct-26 17:42N 27°23' W 037°42'1 0.6 26.4
2014-Oct-26 16:04N 27°23' W 037°43'1 0.4 26.4
2014-Oct-26 14:21N 27°24' W 037°43'0 0.6 26.3
2014-Oct-26 13:41N 27°24' W 037°43'0 0.1
2014-Oct-26 12:55N 27°24' W 037°42'0 0.0 26.2
2014-Oct-26 12:45N 27°24' W 037°42'0 0.1 26.2
2014-Oct-26 12:05N 27°24' W 037°43'0 2.4 26.2
2014-Oct-26 11:56N 27°23' W 037°43'0 0.0 26.2
2014-Oct-26 11:10N 27°23' W 037°43'0 0.0 26.2
2014-Oct-26 11:07N 27°23' W 037°43'0 0.0 26.2
2014-Oct-26 10:01N 27°23' W 037°43'0 0.4 26.2
2014-Oct-26 09:28N 27°23' W 037°42'0 2.1 26.2
2014-Oct-26 09:21N 27°24' W 037°42'0 0.0 26.2
2014-Oct-26 08:24N 27°24' W 037°42'0 3.2 26.2
2014-Oct-26 08:21N 27°24' W 037°42'0 1.3 26.2
2014-Oct-26 08:13N 27°24' W 037°42'0 0.0
2014-Oct-26 07:50N 27°24' W 037°42'0 0.0 26.2
2014-Oct-26 07:46N 27°24' W 037°42'1 0.8 26.2
2014-Oct-26 06:44N 27°24' W 037°43'0 0.0 26.2
2014-Oct-26 06:41N 27°24' W 037°43'1 4.1 26.2
2014-Oct-26 06:21N 27°24' W 037°42'0 0.0 26.2
2014-Oct-26 06:05N 27°24' W 037°42'0 0.0 26.2
2014-Oct-26 04:42N 27°24' W 037°42'0 0.0 26.2
2014-Oct-26 04:39N 27°24' W 037°42'0 1.8 26.2
2014-Oct-26 04:33N 27°24' W 037°42'2 1.1 26.2
2014-Oct-26 02:54N 27°26' W 037°41'0 0.0 26.2
2014-Oct-26 01:19N 27°26' W 037°41'0 0.0 26.2
2014-Oct-26 00:32N 27°26' W 037°41'0 0.0 26.2
2014-Oct-25 23:37N 27°26' W 037°41'0 0.0 26.2
2014-Oct-25 22:51N 27°26' W 037°41'0 0.0 26.2
2014-Oct-25 22:49N 27°26' W 037°41'1 6.4 26.2
2014-Oct-25 22:41N 27°27' W 037°41'0 0.0
2014-Oct-25 21:58N 27°27' W 037°41'0 0.0 26.2
2014-Oct-25 21:55N 27°27' W 037°41'0 0.0 26.2
2014-Oct-25 21:06N 27°27' W 037°41'0 0.0 26.2
2014-Oct-25 19:56N 27°27' W 037°41'1 1.9 26.2
2014-Oct-25 19:27N 27°27' W 037°42'0 0.0 26.3
2014-Oct-25 18:18N 27°27' W 037°42'0 0.9 26.3
2014-Oct-25 17:53N 27°27' W 037°42'0 2.9 26.3
2014-Oct-25 17:47N 27°27' W 037°42'1 0.7 26.3
2014-Oct-25 16:15N 27°28' W 037°43'0 0.0 26.3
2014-Oct-25 16:09N 27°28' W 037°43'0 0.1 26.3
2014-Oct-25 14:32N 27°28' W 037°43'0 0.0 26.2
2014-Oct-25 14:03N 27°28' W 037°43'0 0.0 26.2
2014-Oct-25 13:09N 27°28' W 037°43'0 0.0 26.2
2014-Oct-25 12:22N 27°28' W 037°43'0 0.0 26.2
2014-Oct-25 12:19N 27°28' W 037°43'0 2.1 26.2
2014-Oct-25 12:16N 27°28' W 037°43'0 0.0 26.2
2014-Oct-25 11:36N 27°28' W 037°43'0 0.0
2014-Oct-25 11:34N 27°28' W 037°43'0 0.0 26.2
2014-Oct-25 11:28N 27°28' W 037°43'0 0.0 26.2
2014-Oct-25 10:42N 27°28' W 037°43'1 5.6 26.2
2014-Oct-25 10:36N 27°27' W 037°43'0 0.0 26.2
2014-Oct-25 09:47N 27°27' W 037°43'0 0.0 26.2
2014-Oct-25 08:55N 27°27' W 037°43'0 0.8 26.2
2014-Oct-25 08:35N 27°27' W 037°43'0 1.2 26.2
2014-Oct-25 08:27N 27°27' W 037°43'0 0.0 26.2
2014-Oct-25 08:10N 27°27' W 037°43'0 0.0 26.1
2014-Oct-25 07:15N 27°27' W 037°43'0 0.2 26.2
2014-Oct-25 06:54N 27°27' W 037°43'1 2.0 26.2
2014-Oct-25 06:32N 27°28' W 037°43'110.9 26.2
2014-Oct-25 06:26N 27°27' W 037°42'0 0.0 26.2
2014-Oct-25 04:54N 27°27' W 037°42'0 0.0 26.2
2014-Oct-25 04:51N 27°27' W 037°42'1 0.7 26.2
2014-Oct-25 03:08N 27°29' W 037°41'0 0.0 26.2
2014-Oct-25 03:05N 27°29' W 037°41'0 0.0 26.2
2014-Oct-25 01:36N 27°29' W 037°41'0 0.0 26.2
2014-Oct-25 00:50N 27°29' W 037°41'0 0.0 26.2
2014-Oct-25 00:01N 27°29' W 037°41'0 0.8 26.2
2014-Oct-24 23:55N 27°29' W 037°41'1 0.9 26.2
2014-Oct-24 23:09N 27°29' W 037°42'0 0.0 26.2
2014-Oct-24 22:20N 27°29' W 037°42'0 0.0 26.2
2014-Oct-24 22:16N 27°29' W 037°42'0 0.0 26.2
2014-Oct-24 21:45N 27°29' W 037°42'1 3.1 26.2
2014-Oct-24 21:28N 27°30' W 037°42'0 0.1 26.2
2014-Oct-24 20:08N 27°30' W 037°42'1 1.9 26.2
2014-Oct-24 19:48N 27°30' W 037°42'1 0.6 26.2
2014-Oct-24 18:29N 27°31' W 037°43'0 0.0 26.3
2014-Oct-24 18:09N 27°31' W 037°43'0 1.5 26.3
2014-Oct-24 18:04N 27°31' W 037°42'1 0.6 26.3
2014-Oct-24 16:26N 27°31' W 037°41'1 0.8 26.3
2014-Oct-24 14:45N 27°31' W 037°43'0 0.0 26.3
2014-Oct-24 13:37N 27°31' W 037°43'0 0.0 26.2
2014-Oct-24 12:41N 27°31' W 037°43'115.3 26.2
2014-Oct-24 12:37N 27°30' W 037°43'0 0.0 26.2
2014-Oct-24 12:34N 27°30' W 037°43'0 0.0 26.2
2014-Oct-24 11:56N 27°30' W 037°43'0 0.0 26.2
2014-Oct-24 11:48N 27°30' W 037°43'0 0.0 26.2
2014-Oct-24 11:01N 27°30' W 037°43'1 7.5 26.2
2014-Oct-24 10:56N 27°31' W 037°44'0 0.0 26.2
2014-Oct-24 09:24N 27°31' W 037°44'0 0.2 26.2
2014-Oct-24 08:44N 27°31' W 037°43'0 0.3 26.2
2014-Oct-24 08:32N 27°31' W 037°43'0 0.1 26.2
2014-Oct-24 07:05N 27°31' W 037°44'0 0.1 26.2
2014-Oct-24 05:22N 27°31' W 037°43'0 0.0 26.2
2014-Oct-24 05:02N 27°31' W 037°43'113.7 26.2
2014-Oct-24 04:56N 27°32' W 037°42'0 0.0 26.2
2014-Oct-24 03:22N 27°32' W 037°42'0 0.0 26.2
2014-Oct-24 03:16N 27°32' W 037°42'0 0.0 26.2
2014-Oct-24 00:22N 27°32' W 037°42'1 0.8 26.2
2014-Oct-23 23:32N 27°31' W 037°43'0 0.0 26.2
2014-Oct-23 23:25N 27°31' W 037°43'0 0.0 26.2
2014-Oct-23 22:42N 27°31' W 037°43'1 7.9 26.2
2014-Oct-23 22:34N 27°32' W 037°42'0 0.0 26.2
2014-Oct-23 22:10N 27°32' W 037°42'1 0.6 26.2
2014-Oct-23 20:18N 27°34' W 037°43'1 0.6 26.2
2014-Oct-23 18:40N 27°35' W 037°42'0 0.0 26.3
2014-Oct-23 18:33N 27°35' W 037°42'0 0.0 26.3
2014-Oct-23 18:10N 27°35' W 037°42'0 0.0 26.3
2014-Oct-23 16:55N 27°35' W 037°42'0 0.0 26.3
2014-Oct-23 16:37N 27°35' W 037°42'0 0.0 26.3
2014-Oct-23 16:32N 27°35' W 037°42'1 0.8 26.3
2014-Oct-23 14:56N 27°35' W 037°44'1 0.5 26.3
2014-Oct-23 13:56N 27°35' W 037°44'1 1.3 26.3
2014-Oct-23 13:07N 27°35' W 037°43'1 5.6 26.3
2014-Oct-23 12:56N 27°35' W 037°44'0 0.0 26.3
2014-Oct-23 12:10N 27°35' W 037°44'0 0.1 26.2
2014-Oct-23 11:24N 27°35' W 037°45'1 6.0 26.2
2014-Oct-23 11:18N 27°35' W 037°45'0 0.0 26.2
2014-Oct-23 09:54N 27°35' W 037°45'0 0.0 26.2
2014-Oct-23 09:02N 27°35' W 037°45'0 2.6 26.2
2014-Oct-23 08:55N 27°35' W 037°45'1 0.5 26.2
2014-Oct-23 07:17N 27°34' W 037°45'1 6.7 26.2
2014-Oct-23 07:08N 27°35' W 037°45'0 0.0 26.2
2014-Oct-23 06:51N 27°35' W 037°45'0 0.0 26.2
2014-Oct-23 06:37N 27°35' W 037°45'1 0.8 26.2
2014-Oct-23 05:33N 27°34' W 037°45'0 0.0 26.2
2014-Oct-23 05:10N 27°34' W 037°45'0 5.8 26.2
2014-Oct-23 05:07N 27°35' W 037°45'0 0.0 26.2
2014-Oct-23 03:33N 27°35' W 037°45'1 0.3 26.2
2014-Oct-22 23:54N 27°35' W 037°46'0 0.0 26.3
2014-Oct-22 23:48N 27°35' W 037°46'0 0.0 26.3
2014-Oct-22 23:02N 27°35' W 037°46'326.3 26.3
2014-Oct-22 22:56N 27°37' W 037°44'0 0.0 26.3
2014-Oct-22 22:44N 27°37' W 037°44'0 0.0 26.3
2014-Oct-22 22:08N 27°37' W 037°44'0 0.0 26.3
2014-Oct-22 20:56N 27°37' W 037°44'0 0.0 26.3
2014-Oct-22 20:42N 27°37' W 037°44'0 0.0 26.3
2014-Oct-22 20:29N 27°37' W 037°44'0 0.1 26.3
2014-Oct-22 18:52N 27°37' W 037°43'2 1.1 26.3
2014-Oct-22 17:09N 27°36' W 037°46'0 1.1 26.4
2014-Oct-22 16:48N 27°37' W 037°45'0 0.1 26.4
2014-Oct-22 15:07N 27°37' W 037°45'1 0.2 26.4
2014-Oct-22 11:44N 27°37' W 037°46'112.4 26.3
2014-Oct-22 11:38N 27°38' W 037°47'0 0.0 26.3
2014-Oct-22 10:51N 27°38' W 037°47'0 0.0 26.3
2014-Oct-22 09:22N 27°38' W 037°47'0 0.5 26.3
2014-Oct-22 09:08N 27°38' W 037°47'0 1.4 26.3
2014-Oct-22 08:49N 27°38' W 037°47'1 0.5 26.3
2014-Oct-22 07:44N 27°38' W 037°47'2 8.4 26.3
2014-Oct-22 07:27N 27°37' W 037°45'248.1 26.3
2014-Oct-22 07:24N 27°37' W 037°47'0 0.0 26.3
2014-Oct-22 07:21N 27°37' W 037°47'1 4.9 26.3
2014-Oct-22 07:10N 27°38' W 037°46'1 0.7 26.3
2014-Oct-22 05:49N 27°37' W 037°47'0 3.1 26.3
2014-Oct-22 05:44N 27°38' W 037°47'0 0.0 26.3
2014-Oct-22 05:24N 27°38' W 037°47'1 0.6 26.3
2014-Oct-22 03:47N 27°38' W 037°48'0 0.0 26.3
2014-Oct-22 03:43N 27°38' W 037°48'0 4.4 26.3
2014-Oct-22 03:37N 27°38' W 037°49'0 0.0 26.3
2014-Oct-22 01:02N 27°38' W 037°49'0 0.0 26.3
2014-Oct-22 00:08N 27°38' W 037°49'0 0.2 26.3
2014-Oct-21 23:24N 27°38' W 037°49'1 1.0 26.3
2014-Oct-21 22:33N 27°38' W 037°48'1 6.5 26.3
2014-Oct-21 22:28N 27°38' W 037°47'0 0.0 26.3
2014-Oct-21 21:39N 27°38' W 037°47'1 0.9 26.3
2014-Oct-21 20:38N 27°39' W 037°48'1 1.0 26.3
2014-Oct-21 19:57N 27°38' W 037°48'1 1.3 26.3
2014-Oct-21 19:26N 27°39' W 037°48'0 0.0 26.4
2014-Oct-21 19:18N 27°39' W 037°48'0 0.0
2014-Oct-21 19:03N 27°39' W 037°48'1 4.7 26.4
2014-Oct-21 18:55N 27°39' W 037°48'0 0.0 26.4
2014-Oct-21 17:43N 27°39' W 037°48'0 0.0 26.4
2014-Oct-21 17:16N 27°39' W 037°48'0 0.0 26.4
2014-Oct-21 16:56N 27°39' W 037°48'1 0.8 26.4
2014-Oct-21 15:19N 27°40' W 037°49'0 0.1 26.4
2014-Oct-21 13:47N 27°40' W 037°49'0 0.4 26.3
2014-Oct-21 12:55N 27°40' W 037°49'   26.3
Track history (hours):
 
Tides and Currents Weather Stations Pressure Air Temp Water Temp Dewpoint Dewpoint Depression Visibility Wind Speed Wind Dir Waves Ship Positions

Drifting buoy 13526

Last reported at 2014-Oct-31 12:47 UTC. Time now 2014-Oct-31 14:23 UTC.
Position N 27°06' W 037°53'.

Water temperature 26.0 ° C

Date/timePositionNaut miles runAvg speedWind from/ knotsBaromVisibWave heightAir tempDewpointWater temp
2014-Oct-31 12:47N 27°06' W 037°53'0 0.0 26.0
2014-Oct-31 11:56N 27°06' W 037°53'119.2 26.0
2014-Oct-31 11:52N 27°07' W 037°52'0 0.0 26.0
2014-Oct-31 11:06N 27°07' W 037°52'0 0.0 26.0
2014-Oct-31 09:06N 27°07' W 037°52'1 8.8 26.0
2014-Oct-31 09:01N 27°07' W 037°51'1 0.4 26.0
2014-Oct-31 07:26N 27°07' W 037°51'1 0.3 26.0
2014-Oct-31 05:45N 27°07' W 037°51'0 0.0 26.0
2014-Oct-31 05:25N 27°07' W 037°51'110.4 26.0
2014-Oct-31 05:19N 27°08' W 037°52'0 0.0 26.0
2014-Oct-31 03:44N 27°08' W 037°52'224.8 26.0
2014-Oct-31 03:39N 27°09' W 037°50'0 0.0 26.0
2014-Oct-31 01:15N 27°09' W 037°50'217.2 26.0
2014-Oct-31 01:09N 27°08' W 037°51'0 0.7 26.0
2014-Oct-31 00:29N 27°07' W 037°51'0 0.0 26.0
2014-Oct-30 23:37N 27°07' W 037°51'1 0.8 26.0
2014-Oct-30 22:47N 27°08' W 037°51'1 1.4 26.1
2014-Oct-30 21:56N 27°08' W 037°50'1 9.7 26.1
2014-Oct-30 21:51N 27°07' W 037°50'2 1.5 26.1
2014-Oct-30 20:44N 27°08' W 037°48'0 0.0 26.1
2014-Oct-30 20:35N 27°08' W 037°48'2 6.5 26.1
2014-Oct-30 20:18N 27°07' W 037°50'212.4 26.1
2014-Oct-30 20:09N 27°08' W 037°48'0 0.0 26.1
2014-Oct-30 18:57N 27°08' W 037°48'0 1.8 26.1
2014-Oct-30 18:55N 27°08' W 037°48'1 0.7 26.1
2014-Oct-30 17:18N 27°07' W 037°49'0 0.0 26.2
2014-Oct-30 16:55N 27°07' W 037°49'0 0.2 26.2
2014-Oct-30 15:19N 27°07' W 037°49'1 0.9 26.2
2014-Oct-30 13:59N 27°07' W 037°48'0 0.0 26.2
2014-Oct-30 13:10N 27°07' W 037°48'1 0.7 26.1
2014-Oct-30 12:18N 27°08' W 037°47'0 3.2 26.1
2014-Oct-30 12:15N 27°08' W 037°47'0 0.0 26.1
2014-Oct-30 12:10N 27°08' W 037°47'0 0.1 26.1
2014-Oct-30 11:32N 27°08' W 037°47'112.4 26.1
2014-Oct-30 11:26N 27°09' W 037°46'0 0.1 26.1
2014-Oct-30 09:28N 27°08' W 037°46'0 8.7 26.1
2014-Oct-30 09:25N 27°09' W 037°47'0 0.0 26.1
2014-Oct-30 09:17N 27°09' W 037°47'1 8.4 26.1
2014-Oct-30 09:12N 27°09' W 037°46'0 0.0 26.1
2014-Oct-30 07:56N 27°09' W 037°46'1 6.5 26.1
2014-Oct-30 07:48N 27°09' W 037°47'1 4.7 26.1
2014-Oct-30 07:37N 27°09' W 037°46'1 0.4 26.1
2014-Oct-30 05:56N 27°10' W 037°46'0 1.0 26.1
2014-Oct-30 05:36N 27°10' W 037°45'110.0 26.1
2014-Oct-30 05:30N 27°11' W 037°46'1 0.5 26.1
2014-Oct-30 03:50N 27°11' W 037°45'1 0.3 26.1
2014-Oct-30 00:49N 27°11' W 037°46'0 0.0 26.2
2014-Oct-29 23:56N 27°11' W 037°46'0 0.0 26.2
2014-Oct-29 23:54N 27°11' W 037°46'0 0.0 26.2
2014-Oct-29 23:10N 27°11' W 037°46'0 3.3 26.2
2014-Oct-29 23:02N 27°11' W 037°46'0 0.0 26.2
2014-Oct-29 22:25N 27°11' W 037°46'0 0.4 26.3
2014-Oct-29 22:16N 27°11' W 037°46'0 0.0 26.3
2014-Oct-29 22:11N 27°11' W 037°46'1 0.5
2014-Oct-29 20:38N 27°12' W 037°46'0 0.0 26.4
2014-Oct-29 19:30N 27°12' W 037°46'0 0.0 26.6
2014-Oct-29 19:20N 27°12' W 037°46'0 1.3
2014-Oct-29 19:11N 27°12' W 037°46'0 0.0 26.7
2014-Oct-29 19:07N 27°12' W 037°46'0 0.2 26.7
2014-Oct-29 17:45N 27°12' W 037°46'0 0.0 26.7
2014-Oct-29 17:31N 27°12' W 037°46'0 0.0 26.7
2014-Oct-29 17:26N 27°12' W 037°46'0 1.7 26.8
2014-Oct-29 17:09N 27°12' W 037°46'0 0.3 26.8
2014-Oct-29 15:31N 27°12' W 037°46'1 0.1 27.1
2014-Oct-29 11:55N 27°12' W 037°46'0 0.0 26.2
2014-Oct-29 11:52N 27°12' W 037°46'0 2.1 26.2
2014-Oct-29 11:49N 27°12' W 037°46'0 3.9 26.2
2014-Oct-29 11:44N 27°12' W 037°46'0 0.0 26.2
2014-Oct-29 11:00N 27°12' W 037°46'0 0.0 26.2
2014-Oct-29 10:54N 27°12' W 037°46'0 0.4 26.2
2014-Oct-29 10:03N 27°12' W 037°45'0 0.0 26.1
2014-Oct-29 09:52N 27°12' W 037°45'111.3 26.1
2014-Oct-29 09:49N 27°13' W 037°45'0 0.0 26.1
2014-Oct-29 08:10N 27°13' W 037°45'0 0.9 26.1
2014-Oct-29 07:45N 27°13' W 037°45'0 7.5 26.1
2014-Oct-29 07:42N 27°13' W 037°45'0 0.0 26.1
2014-Oct-29 06:48N 27°13' W 037°45'0 0.6 26.1
2014-Oct-29 06:33N 27°13' W 037°45'0 1.0 26.1
2014-Oct-29 06:09N 27°14' W 037°45'1 5.1 26.1
2014-Oct-29 06:02N 27°14' W 037°44'0 0.0 26.1
2014-Oct-29 05:46N 27°14' W 037°44'1 0.4 26.2
2014-Oct-29 04:10N 27°14' W 037°44'0 0.0 26.2
2014-Oct-29 04:07N 27°14' W 037°44'1 0.2 26.2
2014-Oct-29 01:06N 27°15' W 037°44'0 0.2 26.2
2014-Oct-29 00:19N 27°15' W 037°44'1 0.8 26.2
2014-Oct-28 23:28N 27°15' W 037°45'0 2.4 26.2
2014-Oct-28 23:25N 27°15' W 037°45'110.7 26.2
2014-Oct-28 23:21N 27°15' W 037°46'0 0.0 26.2
2014-Oct-28 22:52N 27°15' W 037°46'0 0.0 26.2
2014-Oct-28 22:38N 27°15' W 037°46'113.7 26.2
2014-Oct-28 22:33N 27°15' W 037°44'0 0.3 26.2
2014-Oct-28 21:29N 27°15' W 037°44'0 0.0 26.2
2014-Oct-28 19:55N 27°15' W 037°44'1 8.8 26.3
2014-Oct-28 19:51N 27°15' W 037°45'0 0.6 26.3
2014-Oct-28 19:31N 27°15' W 037°45'0 0.0 26.3
2014-Oct-28 19:23N 27°15' W 037°45'0 0.0 26.3
2014-Oct-28 18:09N 27°15' W 037°45'029.0 26.4
2014-Oct-28 18:08N 27°15' W 037°45'1 1.2 26.4
2014-Oct-28 17:42N 27°16' W 037°45'1 1.7 26.4
2014-Oct-28 17:22N 27°15' W 037°45'0 0.2 26.4
2014-Oct-28 15:42N 27°16' W 037°45'1 0.6 26.4
2014-Oct-28 13:53N 27°16' W 037°44'0 0.0 26.3
2014-Oct-28 12:11N 27°16' W 037°44'0 0.0 26.2
2014-Oct-28 12:06N 27°16' W 037°44'0 0.0 26.2
2014-Oct-28 11:20N 27°16' W 037°44'0 3.9 26.2
2014-Oct-28 11:15N 27°16' W 037°44'0 0.0 26.2
2014-Oct-28 11:12N 27°16' W 037°44'0 0.0 26.2
2014-Oct-28 08:56N 27°16' W 037°44'0 1.1 26.1
2014-Oct-28 08:36N 27°16' W 037°44'0 0.2 26.2
2014-Oct-28 07:56N 27°16' W 037°44'0 0.5 26.1
2014-Oct-28 07:21N 27°16' W 037°44'0 0.8 26.2
2014-Oct-28 06:56N 27°17' W 037°43'0 0.3 26.2
2014-Oct-28 06:19N 27°17' W 037°43'0 3.2 26.2
2014-Oct-28 06:13N 27°17' W 037°43'0 0.0 26.2
2014-Oct-28 05:56N 27°17' W 037°43'113.6 26.1
2014-Oct-28 05:53N 27°17' W 037°43'0 0.0 26.1
2014-Oct-28 04:18N 27°17' W 037°43'1 5.1 26.2
2014-Oct-28 04:09N 27°18' W 037°42'0 0.1 26.2
2014-Oct-27 23:50N 27°18' W 037°43'0 0.0 26.2
2014-Oct-27 23:44N 27°18' W 037°43'0 0.0 26.2
2014-Oct-27 22:56N 27°18' W 037°43'110.3 26.2
2014-Oct-27 22:52N 27°19' W 037°42'0 0.0 26.2
2014-Oct-27 22:06N 27°19' W 037°42'0 0.0
2014-Oct-27 21:50N 27°19' W 037°42'0 0.1 26.2
2014-Oct-27 20:18N 27°19' W 037°42'0 0.4 26.3
2014-Oct-27 19:35N 27°19' W 037°42'1 0.9 26.3
2014-Oct-27 18:39N 27°19' W 037°43'0 0.0 26.3
2014-Oct-27 18:37N 27°19' W 037°43'0 0.6 26.3
2014-Oct-27 17:54N 27°19' W 037°43'0 0.6 26.4
2014-Oct-27 17:33N 27°19' W 037°43'0 0.0 26.4
2014-Oct-27 15:53N 27°19' W 037°43'0 0.0 26.4
2014-Oct-27 14:07N 27°19' W 037°43'0 0.0 26.3
2014-Oct-27 12:32N 27°19' W 037°43'0 0.0 26.2
2014-Oct-27 12:29N 27°19' W 037°43'0 0.0 26.2
2014-Oct-27 12:25N 27°19' W 037°43'0 0.1 26.2
2014-Oct-27 11:40N 27°19' W 037°43'119.9 26.2
2014-Oct-27 11:36N 27°19' W 037°45'1 1.7 26.2
2014-Oct-27 10:45N 27°19' W 037°43'1 0.4
2014-Oct-27 09:02N 27°19' W 037°42'0 0.3 26.1
2014-Oct-27 08:09N 27°19' W 037°42'0 0.0 26.1
2014-Oct-27 07:52N 27°19' W 037°42'0 0.5 26.1
2014-Oct-27 07:24N 27°20' W 037°42'0 0.3 26.1
2014-Oct-27 06:33N 27°20' W 037°42'0 1.2 26.1
2014-Oct-27 06:30N 27°20' W 037°42'0 2.7 26.1
2014-Oct-27 06:24N 27°20' W 037°41'0 0.2 26.1
2014-Oct-27 06:10N 27°20' W 037°41'0 4.4 26.1
2014-Oct-27 06:07N 27°20' W 037°41'1 0.4 26.1
2014-Oct-27 04:29N 27°20' W 037°41'2 0.5 26.1
2014-Oct-27 00:56N 27°22' W 037°40'1 0.7 26.2
2014-Oct-27 00:09N 27°22' W 037°41'0 0.0 26.2
2014-Oct-27 00:07N 27°22' W 037°41'0 0.0 26.2
2014-Oct-27 00:04N 27°22' W 037°41'0 0.0 26.2
2014-Oct-26 23:20N 27°22' W 037°41'0 3.2 26.2
2014-Oct-26 23:13N 27°22' W 037°41'0 0.0 26.2
2014-Oct-26 23:10N 27°22' W 037°41'1 0.9 26.2
2014-Oct-26 22:30N 27°23' W 037°41'1 3.6 26.2
2014-Oct-26 22:20N 27°22' W 037°41'1 0.4 26.2
2014-Oct-26 20:43N 27°23' W 037°41'0 1.0 26.2
2014-Oct-26 20:32N 27°23' W 037°41'0 0.0 26.2
2014-Oct-26 19:46N 27°23' W 037°41'110.7 26.3
2014-Oct-26 19:40N 27°23' W 037°42'0 0.0
2014-Oct-26 18:56N 27°23' W 037°42'0 0.0 26.3
2014-Oct-26 18:05N 27°23' W 037°42'0 0.6 26.4
2014-Oct-26 17:42N 27°23' W 037°42'1 0.6 26.4
2014-Oct-26 16:04N 27°23' W 037°43'1 0.4 26.4
2014-Oct-26 14:21N 27°24' W 037°43'0 0.6 26.3
2014-Oct-26 13:41N 27°24' W 037°43'0 0.1
2014-Oct-26 12:55N 27°24' W 037°42'0 0.0 26.2
2014-Oct-26 12:45N 27°24' W 037°42'0 0.1 26.2
2014-Oct-26 12:05N 27°24' W 037°43'0 2.4 26.2
2014-Oct-26 11:56N 27°23' W 037°43'0 0.0 26.2
2014-Oct-26 11:10N 27°23' W 037°43'0 0.0 26.2
2014-Oct-26 11:07N 27°23' W 037°43'0 0.0 26.2
2014-Oct-26 10:01N 27°23' W 037°43'0 0.4 26.2
2014-Oct-26 09:28N 27°23' W 037°42'0 2.1 26.2
2014-Oct-26 09:21N 27°24' W 037°42'0 0.0 26.2
2014-Oct-26 08:24N 27°24' W 037°42'0 3.2 26.2
2014-Oct-26 08:21N 27°24' W 037°42'0 1.3 26.2
2014-Oct-26 08:13N 27°24' W 037°42'0 0.0
2014-Oct-26 07:50N 27°24' W 037°42'0 0.0 26.2
2014-Oct-26 07:46N 27°24' W 037°42'1 0.8 26.2
2014-Oct-26 06:44N 27°24' W 037°43'0 0.0 26.2
2014-Oct-26 06:41N 27°24' W 037°43'1 4.1 26.2
2014-Oct-26 06:21N 27°24' W 037°42'0 0.0 26.2
2014-Oct-26 06:05N 27°24' W 037°42'0 0.0 26.2
2014-Oct-26 04:42N 27°24' W 037°42'0 0.0 26.2
2014-Oct-26 04:39N 27°24' W 037°42'0 1.8 26.2
2014-Oct-26 04:33N 27°24' W 037°42'2 1.1 26.2
2014-Oct-26 02:54N 27°26' W 037°41'0 0.0 26.2
2014-Oct-26 01:19N 27°26' W 037°41'0 0.0 26.2
2014-Oct-26 00:32N 27°26' W 037°41'0 0.0 26.2
2014-Oct-25 23:37N 27°26' W 037°41'0 0.0 26.2
2014-Oct-25 22:51N 27°26' W 037°41'0 0.0 26.2
2014-Oct-25 22:49N 27°26' W 037°41'1 6.4 26.2
2014-Oct-25 22:41N 27°27' W 037°41'0 0.0
2014-Oct-25 21:58N 27°27' W 037°41'0 0.0 26.2
2014-Oct-25 21:55N 27°27' W 037°41'0 0.0 26.2
2014-Oct-25 21:06N 27°27' W 037°41'0 0.0 26.2
2014-Oct-25 19:56N 27°27' W 037°41'1 1.9 26.2
2014-Oct-25 19:27N 27°27' W 037°42'0 0.0 26.3
2014-Oct-25 18:18N 27°27' W 037°42'0 0.9 26.3
2014-Oct-25 17:53N 27°27' W 037°42'0 2.9 26.3
2014-Oct-25 17:47N 27°27' W 037°42'1 0.7 26.3
2014-Oct-25 16:15N 27°28' W 037°43'0 0.0 26.3
2014-Oct-25 16:09N 27°28' W 037°43'0 0.1 26.3
2014-Oct-25 14:32N 27°28' W 037°43'0 0.0 26.2
2014-Oct-25 14:03N 27°28' W 037°43'0 0.0 26.2
2014-Oct-25 13:09N 27°28' W 037°43'0 0.0 26.2
2014-Oct-25 12:22N 27°28' W 037°43'0 0.0 26.2
2014-Oct-25 12:19N 27°28' W 037°43'0 2.1 26.2
2014-Oct-25 12:16N 27°28' W 037°43'0 0.0 26.2
2014-Oct-25 11:36N 27°28' W 037°43'0 0.0
2014-Oct-25 11:34N 27°28' W 037°43'0 0.0 26.2
2014-Oct-25 11:28N 27°28' W 037°43'0 0.0 26.2
2014-Oct-25 10:42N 27°28' W 037°43'1 5.6 26.2
2014-Oct-25 10:36N 27°27' W 037°43'0 0.0 26.2
2014-Oct-25 09:47N 27°27' W 037°43'0 0.0 26.2
2014-Oct-25 08:55N 27°27' W 037°43'0 0.8 26.2
2014-Oct-25 08:35N 27°27' W 037°43'0 1.2 26.2
2014-Oct-25 08:27N 27°27' W 037°43'0 0.0 26.2
2014-Oct-25 08:10N 27°27' W 037°43'0 0.0 26.1
2014-Oct-25 07:15N 27°27' W 037°43'0 0.2 26.2
2014-Oct-25 06:54N 27°27' W 037°43'1 2.0 26.2
2014-Oct-25 06:32N 27°28' W 037°43'110.9 26.2
2014-Oct-25 06:26N 27°27' W 037°42'0 0.0 26.2
2014-Oct-25 04:54N 27°27' W 037°42'0 0.0 26.2
2014-Oct-25 04:51N 27°27' W 037°42'1 0.7 26.2
2014-Oct-25 03:08N 27°29' W 037°41'0 0.0 26.2
2014-Oct-25 03:05N 27°29' W 037°41'0 0.0 26.2
2014-Oct-25 01:36N 27°29' W 037°41'0 0.0 26.2
2014-Oct-25 00:50N 27°29' W 037°41'0 0.0 26.2
2014-Oct-25 00:01N 27°29' W 037°41'0 0.8 26.2
2014-Oct-24 23:55N 27°29' W 037°41'1 0.9 26.2
2014-Oct-24 23:09N 27°29' W 037°42'0 0.0 26.2
2014-Oct-24 22:20N 27°29' W 037°42'0 0.0 26.2
2014-Oct-24 22:16N 27°29' W 037°42'0 0.0 26.2
2014-Oct-24 21:45N 27°29' W 037°42'1 3.1 26.2
2014-Oct-24 21:28N 27°30' W 037°42'0 0.1 26.2
2014-Oct-24 20:08N 27°30' W 037°42'1 1.9 26.2
2014-Oct-24 19:48N 27°30' W 037°42'1 0.6 26.2
2014-Oct-24 18:29N 27°31' W 037°43'0 0.0 26.3
2014-Oct-24 18:09N 27°31' W 037°43'0 1.5 26.3
2014-Oct-24 18:04N 27°31' W 037°42'1 0.6 26.3
2014-Oct-24 16:26N 27°31' W 037°41'1 0.8 26.3
2014-Oct-24 14:45N 27°31' W 037°43'0 0.0 26.3
2014-Oct-24 13:37N 27°31' W 037°43'0 0.0 26.2
2014-Oct-24 12:41N 27°31' W 037°43'115.3 26.2
2014-Oct-24 12:37N 27°30' W 037°43'0 0.0 26.2
2014-Oct-24 12:34N 27°30' W 037°43'0 0.0 26.2
2014-Oct-24 11:56N 27°30' W 037°43'0 0.0 26.2
2014-Oct-24 11:48N 27°30' W 037°43'0 0.0 26.2
2014-Oct-24 11:01N 27°30' W 037°43'1 7.5 26.2
2014-Oct-24 10:56N 27°31' W 037°44'0 0.0 26.2
2014-Oct-24 09:24N 27°31' W 037°44'0 0.2 26.2
2014-Oct-24 08:44N 27°31' W 037°43'0 0.3 26.2
2014-Oct-24 08:32N 27°31' W 037°43'0 0.1 26.2
2014-Oct-24 07:05N 27°31' W 037°44'0 0.1 26.2
2014-Oct-24 05:22N 27°31' W 037°43'0 0.0 26.2
2014-Oct-24 05:02N 27°31' W 037°43'113.7 26.2
2014-Oct-24 04:56N 27°32' W 037°42'0 0.0 26.2
2014-Oct-24 03:22N 27°32' W 037°42'0 0.0 26.2
2014-Oct-24 03:16N 27°32' W 037°42'0 0.0 26.2
2014-Oct-24 00:22N 27°32' W 037°42'1 0.8 26.2
2014-Oct-23 23:32N 27°31' W 037°43'0 0.0 26.2
2014-Oct-23 23:25N 27°31' W 037°43'0 0.0 26.2
2014-Oct-23 22:42N 27°31' W 037°43'1 7.9 26.2
2014-Oct-23 22:34N 27°32' W 037°42'0 0.0 26.2
2014-Oct-23 22:10N 27°32' W 037°42'1 0.6 26.2
2014-Oct-23 20:18N 27°34' W 037°43'1 0.6 26.2
2014-Oct-23 18:40N 27°35' W 037°42'0 0.0 26.3
2014-Oct-23 18:33N 27°35' W 037°42'0 0.0 26.3
2014-Oct-23 18:10N 27°35' W 037°42'0 0.0 26.3
2014-Oct-23 16:55N 27°35' W 037°42'0 0.0 26.3
2014-Oct-23 16:37N 27°35' W 037°42'0 0.0 26.3
2014-Oct-23 16:32N 27°35' W 037°42'1 0.8 26.3
2014-Oct-23 14:56N 27°35' W 037°44'1 0.5 26.3
2014-Oct-23 13:56N 27°35' W 037°44'1 1.3 26.3
2014-Oct-23 13:07N 27°35' W 037°43'1 5.6 26.3
2014-Oct-23 12:56N 27°35' W 037°44'0 0.0 26.3
2014-Oct-23 12:10N 27°35' W 037°44'0 0.1 26.2
2014-Oct-23 11:24N 27°35' W 037°45'1 6.0 26.2
2014-Oct-23 11:18N 27°35' W 037°45'0 0.0 26.2
2014-Oct-23 09:54N 27°35' W 037°45'0 0.0 26.2
2014-Oct-23 09:02N 27°35' W 037°45'0 2.6 26.2
2014-Oct-23 08:55N 27°35' W 037°45'1 0.5 26.2
2014-Oct-23 07:17N 27°34' W 037°45'1 6.7 26.2
2014-Oct-23 07:08N 27°35' W 037°45'0 0.0 26.2
2014-Oct-23 06:51N 27°35' W 037°45'0 0.0 26.2
2014-Oct-23 06:37N 27°35' W 037°45'1 0.8 26.2
2014-Oct-23 05:33N 27°34' W 037°45'0 0.0 26.2
2014-Oct-23 05:10N 27°34' W 037°45'0 5.8 26.2
2014-Oct-23 05:07N 27°35' W 037°45'0 0.0 26.2
2014-Oct-23 03:33N 27°35' W 037°45'1 0.3 26.2
2014-Oct-22 23:54N 27°35' W 037°46'0 0.0 26.3
2014-Oct-22 23:48N 27°35' W 037°46'0 0.0 26.3
2014-Oct-22 23:02N 27°35' W 037°46'326.3 26.3
2014-Oct-22 22:56N 27°37' W 037°44'0 0.0 26.3
2014-Oct-22 22:44N 27°37' W 037°44'0 0.0 26.3
2014-Oct-22 22:08N 27°37' W 037°44'0 0.0 26.3
2014-Oct-22 20:56N 27°37' W 037°44'0 0.0 26.3
2014-Oct-22 20:42N 27°37' W 037°44'0 0.0 26.3
2014-Oct-22 20:29N 27°37' W 037°44'0 0.1 26.3
2014-Oct-22 18:52N 27°37' W 037°43'2 1.1 26.3
2014-Oct-22 17:09N 27°36' W 037°46'0 1.1 26.4
2014-Oct-22 16:48N 27°37' W 037°45'0 0.1 26.4
2014-Oct-22 15:07N 27°37' W 037°45'1 0.2 26.4
2014-Oct-22 11:44N 27°37' W 037°46'112.4 26.3
2014-Oct-22 11:38N 27°38' W 037°47'0 0.0 26.3
2014-Oct-22 10:51N 27°38' W 037°47'0 0.0 26.3
2014-Oct-22 09:22N 27°38' W 037°47'0 0.5 26.3
2014-Oct-22 09:08N 27°38' W 037°47'0 1.4 26.3
2014-Oct-22 08:49N 27°38' W 037°47'1 0.5 26.3
2014-Oct-22 07:44N 27°38' W 037°47'2 8.4 26.3
2014-Oct-22 07:27N 27°37' W 037°45'248.1 26.3
2014-Oct-22 07:24N 27°37' W 037°47'0 0.0 26.3
2014-Oct-22 07:21N 27°37' W 037°47'1 4.9 26.3
2014-Oct-22 07:10N 27°38' W 037°46'1 0.7 26.3
2014-Oct-22 05:49N 27°37' W 037°47'0 3.1 26.3
2014-Oct-22 05:44N 27°38' W 037°47'0 0.0 26.3
2014-Oct-22 05:24N 27°38' W 037°47'1 0.6 26.3
2014-Oct-22 03:47N 27°38' W 037°48'0 0.0 26.3
2014-Oct-22 03:43N 27°38' W 037°48'0 4.4 26.3
2014-Oct-22 03:37N 27°38' W 037°49'0 0.0 26.3
2014-Oct-22 01:02N 27°38' W 037°49'0 0.0 26.3
2014-Oct-22 00:08N 27°38' W 037°49'0 0.2 26.3
2014-Oct-21 23:24N 27°38' W 037°49'1 1.0 26.3
2014-Oct-21 22:33N 27°38' W 037°48'1 6.5 26.3
2014-Oct-21 22:28N 27°38' W 037°47'0 0.0 26.3
2014-Oct-21 21:39N 27°38' W 037°47'1 0.9 26.3
2014-Oct-21 20:38N 27°39' W 037°48'1 1.0 26.3
2014-Oct-21 19:57N 27°38' W 037°48'1 1.3 26.3
2014-Oct-21 19:26N 27°39' W 037°48'0 0.0 26.4
2014-Oct-21 19:18N 27°39' W 037°48'0 0.0
2014-Oct-21 19:03N 27°39' W 037°48'1 4.7 26.4
2014-Oct-21 18:55N 27°39' W 037°48'0 0.0 26.4
2014-Oct-21 17:43N 27°39' W 037°48'0 0.0 26.4
2014-Oct-21 17:16N 27°39' W 037°48'0 0.0 26.4
2014-Oct-21 16:56N 27°39' W 037°48'1 0.8 26.4
2014-Oct-21 15:19N 27°40' W 037°49'0 0.1 26.4
2014-Oct-21 13:47N 27°40' W 037°49'0 0.4 26.3
2014-Oct-21 12:55N 27°40' W 037°49'   26.3

Dump ship's entire track history